sensor_id;sensor_type;location;lat;lon;timestamp;P1;durP1;ratioP1;P2;durP2;ratioP2
71696;SDS011;68167;59.120;37.898;2023-08-20T00:02:05;8.70;;;4.37;;
71696;SDS011;68167;59.120;37.898;2023-08-20T00:04:35;7.87;;;3.60;;
71696;SDS011;68167;59.120;37.898;2023-08-20T00:07:02;8.93;;;3.80;;
71696;SDS011;68167;59.120;37.898;2023-08-20T00:09:29;9.07;;;3.63;;
71696;SDS011;68167;59.120;37.898;2023-08-20T00:11:56;5.20;;;3.20;;
71696;SDS011;68167;59.120;37.898;2023-08-20T00:14:51;4.23;;;3.20;;
71696;SDS011;68167;59.120;37.898;2023-08-20T00:17:19;7.70;;;3.67;;
71696;SDS011;68167;59.120;37.898;2023-08-20T00:19:46;6.30;;;3.93;;
71696;SDS011;68167;59.120;37.898;2023-08-20T00:22:13;4.63;;;3.20;;
71696;SDS011;68167;59.120;37.898;2023-08-20T00:24:41;8.17;;;3.77;;
71696;SDS011;68167;59.120;37.898;2023-08-20T00:27:07;4.63;;;3.20;;
71696;SDS011;68167;59.120;37.898;2023-08-20T00:29:34;4.67;;;3.40;;
71696;SDS011;68167;59.120;37.898;2023-08-20T00:32:00;7.27;;;3.40;;
71696;SDS011;68167;59.120;37.898;2023-08-20T00:34:26;5.83;;;3.70;;
71696;SDS011;68167;59.120;37.898;2023-08-20T00:36:52;13.87;;;4.67;;
71696;SDS011;68167;59.120;37.898;2023-08-20T00:39:19;4.83;;;3.80;;
71696;SDS011;68167;59.120;37.898;2023-08-20T00:41:45;5.57;;;3.40;;
71696;SDS011;68167;59.120;37.898;2023-08-20T00:44:11;5.40;;;3.20;;
71696;SDS011;68167;59.120;37.898;2023-08-20T00:46:38;5.87;;;3.40;;
71696;SDS011;68167;59.120;37.898;2023-08-20T00:49:04;8.70;;;3.10;;
71696;SDS011;68167;59.120;37.898;2023-08-20T00:51:32;7.70;;;3.40;;
71696;SDS011;68167;59.120;37.898;2023-08-20T00:54:00;7.27;;;3.50;;
71696;SDS011;68167;59.120;37.898;2023-08-20T00:56:28;6.40;;;3.30;;
71696;SDS011;68167;59.120;37.898;2023-08-20T00:58:55;7.97;;;3.57;;
71696;SDS011;68167;59.120;37.898;2023-08-20T01:01:21;10.80;;;5.27;;
71696;SDS011;68167;59.120;37.898;2023-08-20T01:03:48;9.60;;;5.63;;
71696;SDS011;68167;59.120;37.898;2023-08-20T01:09:14;12.00;;;5.37;;
71696;SDS011;68167;59.120;37.898;2023-08-20T01:12:01;26.60;;;7.13;;
71696;SDS011;68167;59.120;37.898;2023-08-20T01:14:29;17.80;;;7.57;;
71696;SDS011;68167;59.120;37.898;2023-08-20T01:16:56;15.20;;;6.83;;
71696;SDS011;68167;59.120;37.898;2023-08-20T01:19:22;9.80;;;7.83;;
71696;SDS011;68167;59.120;37.898;2023-08-20T01:29:35;12.50;;;7.07;;
71696;SDS011;68167;59.120;37.898;2023-08-20T01:32:03;16.63;;;8.10;;
71696;SDS011;68167;59.120;37.898;2023-08-20T01:34:31;14.00;;;7.50;;
71696;SDS011;68167;59.120;37.898;2023-08-20T01:36:57;10.10;;;7.23;;
71696;SDS011;68167;59.120;37.898;2023-08-20T01:39:24;9.30;;;6.33;;
71696;SDS011;68167;59.120;37.898;2023-08-20T01:41:50;14.53;;;7.70;;
71696;SDS011;68167;59.120;37.898;2023-08-20T01:44:16;10.83;;;6.93;;
71696;SDS011;68167;59.120;37.898;2023-08-20T01:46:43;7.57;;;6.87;;
71696;SDS011;68167;59.120;37.898;2023-08-20T01:49:09;11.77;;;8.23;;
71696;SDS011;68167;59.120;37.898;2023-08-20T01:51:35;11.97;;;8.80;;
71696;SDS011;68167;59.120;37.898;2023-08-20T01:54:02;9.00;;;8.10;;
71696;SDS011;68167;59.120;37.898;2023-08-20T01:56:28;6.80;;;6.10;;
71696;SDS011;68167;59.120;37.898;2023-08-20T01:58:55;7.77;;;6.97;;
71696;SDS011;68167;59.120;37.898;2023-08-20T02:01:21;8.23;;;6.27;;
71696;SDS011;68167;59.120;37.898;2023-08-20T02:03:47;7.80;;;6.10;;
71696;SDS011;68167;59.120;37.898;2023-08-20T02:06:13;10.30;;;5.07;;
71696;SDS011;68167;59.120;37.898;2023-08-20T02:08:44;7.60;;;5.43;;
71696;SDS011;68167;59.120;37.898;2023-08-20T02:11:11;8.47;;;6.77;;
71696;SDS011;68167;59.120;37.898;2023-08-20T02:13:37;11.83;;;8.53;;
71696;SDS011;68167;59.120;37.898;2023-08-20T02:16:04;11.60;;;9.27;;
71696;SDS011;68167;59.120;37.898;2023-08-20T02:18:52;21.23;;;10.83;;
71696;SDS011;68167;59.120;37.898;2023-08-20T02:21:18;17.57;;;13.30;;
71696;SDS011;68167;59.120;37.898;2023-08-20T02:23:44;18.63;;;16.07;;
71696;SDS011;68167;59.120;37.898;2023-08-20T02:26:11;17.67;;;13.50;;
71696;SDS011;68167;59.120;37.898;2023-08-20T02:28:37;18.90;;;12.17;;
71696;SDS011;68167;59.120;37.898;2023-08-20T02:31:04;15.80;;;10.03;;
71696;SDS011;68167;59.120;37.898;2023-08-20T02:33:30;8.77;;;5.73;;
71696;SDS011;68167;59.120;37.898;2023-08-20T02:36:03;7.77;;;4.47;;
71696;SDS011;68167;59.120;37.898;2023-08-20T02:38:30;4.67;;;3.70;;
71696;SDS011;68167;59.120;37.898;2023-08-20T02:40:56;5.10;;;3.50;;
71696;SDS011;68167;59.120;37.898;2023-08-20T02:43:23;6.37;;;3.83;;
71696;SDS011;68167;59.120;37.898;2023-08-20T02:45:49;5.27;;;4.10;;
71696;SDS011;68167;59.120;37.898;2023-08-20T02:48:18;4.90;;;3.77;;
71696;SDS011;68167;59.120;37.898;2023-08-20T02:50:45;9.07;;;4.23;;
71696;SDS011;68167;59.120;37.898;2023-08-20T02:53:11;7.00;;;3.90;;
71696;SDS011;68167;59.120;37.898;2023-08-20T02:55:37;6.17;;;3.67;;
71696;SDS011;68167;59.120;37.898;2023-08-20T02:58:04;7.40;;;3.17;;
71696;SDS011;68167;59.120;37.898;2023-08-20T03:00:33;4.93;;;3.67;;
71696;SDS011;68167;59.120;37.898;2023-08-20T03:02:59;5.53;;;3.63;;
71696;SDS011;68167;59.120;37.898;2023-08-20T03:05:28;4.67;;;3.63;;
71696;SDS011;68167;59.120;37.898;2023-08-20T03:07:54;4.80;;;3.33;;
71696;SDS011;68167;59.120;37.898;2023-08-20T03:10:21;9.27;;;3.47;;
71696;SDS011;68167;59.120;37.898;2023-08-20T03:12:47;4.93;;;3.27;;
71696;SDS011;68167;59.120;37.898;2023-08-20T03:15:13;3.60;;;3.27;;
71696;SDS011;68167;59.120;37.898;2023-08-20T03:17:40;6.63;;;3.10;;
71696;SDS011;68167;59.120;37.898;2023-08-20T03:20:06;4.37;;;3.40;;
71696;SDS011;68167;59.120;37.898;2023-08-20T03:22:33;7.10;;;3.40;;
71696;SDS011;68167;59.120;37.898;2023-08-20T03:25:02;3.17;;;2.83;;
71696;SDS011;68167;59.120;37.898;2023-08-20T03:27:30;3.63;;;3.10;;
71696;SDS011;68167;59.120;37.898;2023-08-20T03:29:57;3.37;;;3.07;;
71696;SDS011;68167;59.120;37.898;2023-08-20T03:32:24;6.77;;;2.90;;
71696;SDS011;68167;59.120;37.898;2023-08-20T03:34:50;5.43;;;3.03;;
71696;SDS011;68167;59.120;37.898;2023-08-20T03:37:19;5.03;;;2.83;;
71696;SDS011;68167;59.120;37.898;2023-08-20T03:39:45;4.10;;;2.93;;
71696;SDS011;68167;59.120;37.898;2023-08-20T03:42:12;6.17;;;3.20;;
71696;SDS011;68167;59.120;37.898;2023-08-20T03:44:38;4.03;;;3.43;;
71696;SDS011;68167;59.120;37.898;2023-08-20T03:47:04;4.77;;;3.30;;
71696;SDS011;68167;59.120;37.898;2023-08-20T03:49:31;8.00;;;3.57;;
71696;SDS011;68167;59.120;37.898;2023-08-20T03:51:57;9.67;;;4.10;;
71696;SDS011;68167;59.120;37.898;2023-08-20T03:54:23;12.37;;;4.23;;
71696;SDS011;68167;59.120;37.898;2023-08-20T03:56:50;9.03;;;4.30;;
71696;SDS011;68167;59.120;37.898;2023-08-20T03:59:16;4.17;;;3.37;;
71696;SDS011;68167;59.120;37.898;2023-08-20T04:01:42;6.10;;;2.50;;
71696;SDS011;68167;59.120;37.898;2023-08-20T04:04:09;3.57;;;2.30;;
71696;SDS011;68167;59.120;37.898;2023-08-20T04:06:35;3.53;;;2.80;;
71696;SDS011;68167;59.120;37.898;2023-08-20T04:09:01;5.57;;;3.00;;
71696;SDS011;68167;59.120;37.898;2023-08-20T04:11:28;3.13;;;2.83;;
71696;SDS011;68167;59.120;37.898;2023-08-20T04:13:55;6.60;;;2.93;;
71696;SDS011;68167;59.120;37.898;2023-08-20T04:16:21;4.73;;;2.60;;
71696;SDS011;68167;59.120;37.898;2023-08-20T04:18:47;3.27;;;2.63;;
71696;SDS011;68167;59.120;37.898;2023-08-20T04:21:13;5.33;;;3.00;;
71696;SDS011;68167;59.120;37.898;2023-08-20T04:23:40;4.33;;;2.90;;
71696;SDS011;68167;59.120;37.898;2023-08-20T04:26:07;4.33;;;2.63;;
71696;SDS011;68167;59.120;37.898;2023-08-20T04:28:34;2.90;;;2.57;;
71696;SDS011;68167;59.120;37.898;2023-08-20T04:31:00;4.87;;;3.00;;
71696;SDS011;68167;59.120;37.898;2023-08-20T04:33:35;5.23;;;2.80;;
71696;SDS011;68167;59.120;37.898;2023-08-20T04:36:02;3.83;;;2.80;;
71696;SDS011;68167;59.120;37.898;2023-08-20T04:38:28;3.77;;;2.50;;
71696;SDS011;68167;59.120;37.898;2023-08-20T04:40:54;3.77;;;2.63;;
71696;SDS011;68167;59.120;37.898;2023-08-20T04:43:21;4.70;;;3.37;;
71696;SDS011;68167;59.120;37.898;2023-08-20T04:45:47;6.90;;;4.07;;
71696;SDS011;68167;59.120;37.898;2023-08-20T04:48:15;3.73;;;2.57;;
71696;SDS011;68167;59.120;37.898;2023-08-20T04:50:42;3.33;;;2.47;;
71696;SDS011;68167;59.120;37.898;2023-08-20T04:53:08;3.97;;;2.10;;
71696;SDS011;68167;59.120;37.898;2023-08-20T04:55:35;7.23;;;5.23;;
71696;SDS011;68167;59.120;37.898;2023-08-20T04:58:01;5.27;;;2.37;;
71696;SDS011;68167;59.120;37.898;2023-08-20T05:00:29;3.80;;;2.70;;
71696;SDS011;68167;59.120;37.898;2023-08-20T05:03:04;3.20;;;2.10;;
71696;SDS011;68167;59.120;37.898;2023-08-20T05:05:30;5.20;;;3.13;;
71696;SDS011;68167;59.120;37.898;2023-08-20T05:07:56;3.43;;;2.13;;
71696;SDS011;68167;59.120;37.898;2023-08-20T05:10:23;8.23;;;2.53;;
71696;SDS011;68167;59.120;37.898;2023-08-20T05:12:49;5.20;;;4.17;;
71696;SDS011;68167;59.120;37.898;2023-08-20T05:15:16;3.97;;;2.10;;
71696;SDS011;68167;59.120;37.898;2023-08-20T05:17:43;2.70;;;1.90;;
71696;SDS011;68167;59.120;37.898;2023-08-20T05:20:09;4.90;;;2.27;;
71696;SDS011;68167;59.120;37.898;2023-08-20T05:22:36;4.23;;;1.83;;
71696;SDS011;68167;59.120;37.898;2023-08-20T05:25:02;3.03;;;1.97;;
71696;SDS011;68167;59.120;37.898;2023-08-20T05:27:30;4.20;;;2.53;;
71696;SDS011;68167;59.120;37.898;2023-08-20T05:29:57;3.13;;;1.80;;
71696;SDS011;68167;59.120;37.898;2023-08-20T05:32:23;3.63;;;2.00;;
71696;SDS011;68167;59.120;37.898;2023-08-20T05:34:49;3.90;;;1.93;;
71696;SDS011;68167;59.120;37.898;2023-08-20T05:37:16;2.30;;;1.70;;
71696;SDS011;68167;59.120;37.898;2023-08-20T05:39:43;2.30;;;1.70;;
71696;SDS011;68167;59.120;37.898;2023-08-20T05:42:10;2.53;;;1.70;;
71696;SDS011;68167;59.120;37.898;2023-08-20T05:44:38;4.07;;;2.40;;
71696;SDS011;68167;59.120;37.898;2023-08-20T05:47:08;3.17;;;2.33;;
71696;SDS011;68167;59.120;37.898;2023-08-20T05:49:34;3.67;;;2.17;;
71696;SDS011;68167;59.120;37.898;2023-08-20T05:52:01;2.33;;;1.90;;
71696;SDS011;68167;59.120;37.898;2023-08-20T05:54:29;3.33;;;1.93;;
71696;SDS011;68167;59.120;37.898;2023-08-20T05:56:57;2.80;;;2.40;;
71696;SDS011;68167;59.120;37.898;2023-08-20T05:59:24;3.80;;;2.00;;
71696;SDS011;68167;59.120;37.898;2023-08-20T06:01:52;3.20;;;1.77;;
71696;SDS011;68167;59.120;37.898;2023-08-20T06:04:20;4.60;;;2.23;;
71696;SDS011;68167;59.120;37.898;2023-08-20T06:06:47;3.30;;;2.10;;
71696;SDS011;68167;59.120;37.898;2023-08-20T06:09:13;3.73;;;2.20;;
71696;SDS011;68167;59.120;37.898;2023-08-20T06:11:40;2.20;;;1.90;;
71696;SDS011;68167;59.120;37.898;2023-08-20T06:14:06;3.10;;;2.60;;
71696;SDS011;68167;59.120;37.898;2023-08-20T06:16:32;2.00;;;1.63;;
71696;SDS011;68167;59.120;37.898;2023-08-20T06:18:59;4.23;;;2.30;;
71696;SDS011;68167;59.120;37.898;2023-08-20T06:21:25;2.60;;;2.00;;
71696;SDS011;68167;59.120;37.898;2023-08-20T06:23:52;4.33;;;1.83;;
71696;SDS011;68167;59.120;37.898;2023-08-20T06:26:19;2.40;;;1.47;;
71696;SDS011;68167;59.120;37.898;2023-08-20T06:28:46;3.47;;;1.70;;
71696;SDS011;68167;59.120;37.898;2023-08-20T06:31:12;6.90;;;1.60;;
71696;SDS011;68167;59.120;37.898;2023-08-20T06:33:38;4.37;;;2.57;;
71696;SDS011;68167;59.120;37.898;2023-08-20T06:36:05;2.00;;;1.40;;
71696;SDS011;68167;59.120;37.898;2023-08-20T06:38:31;3.20;;;1.43;;
71696;SDS011;68167;59.120;37.898;2023-08-20T06:40:58;1.93;;;1.30;;
71696;SDS011;68167;59.120;37.898;2023-08-20T06:43:24;2.70;;;1.57;;
71696;SDS011;68167;59.120;37.898;2023-08-20T06:45:50;2.87;;;1.40;;
71696;SDS011;68167;59.120;37.898;2023-08-20T06:48:18;3.30;;;1.90;;
71696;SDS011;68167;59.120;37.898;2023-08-20T06:50:46;2.93;;;1.50;;
71696;SDS011;68167;59.120;37.898;2023-08-20T06:53:12;1.87;;;1.50;;
71696;SDS011;68167;59.120;37.898;2023-08-20T06:55:38;3.10;;;1.40;;
71696;SDS011;68167;59.120;37.898;2023-08-20T06:58:05;2.07;;;1.30;;
71696;SDS011;68167;59.120;37.898;2023-08-20T07:00:31;2.13;;;1.40;;
71696;SDS011;68167;59.120;37.898;2023-08-20T07:02:57;1.77;;;1.30;;
71696;SDS011;68167;59.120;37.898;2023-08-20T07:05:24;2.47;;;1.20;;
71696;SDS011;68167;59.120;37.898;2023-08-20T07:07:50;1.83;;;1.40;;
71696;SDS011;68167;59.120;37.898;2023-08-20T07:10:17;2.67;;;1.60;;
71696;SDS011;68167;59.120;37.898;2023-08-20T07:12:43;2.80;;;1.70;;
71696;SDS011;68167;59.120;37.898;2023-08-20T07:15:09;3.80;;;1.40;;
71696;SDS011;68167;59.120;37.898;2023-08-20T07:17:37;2.67;;;1.20;;
71696;SDS011;68167;59.120;37.898;2023-08-20T07:20:04;1.63;;;1.20;;
71696;SDS011;68167;59.120;37.898;2023-08-20T07:22:31;2.00;;;1.30;;
71696;SDS011;68167;59.120;37.898;2023-08-20T07:24:58;1.40;;;1.30;;
71696;SDS011;68167;59.120;37.898;2023-08-20T07:27:24;2.80;;;1.10;;
71696;SDS011;68167;59.120;37.898;2023-08-20T07:29:50;2.73;;;1.20;;
71696;SDS011;68167;59.120;37.898;2023-08-20T07:32:17;2.13;;;1.33;;
71696;SDS011;68167;59.120;37.898;2023-08-20T07:34:43;2.17;;;1.30;;
71696;SDS011;68167;59.120;37.898;2023-08-20T07:37:09;3.17;;;1.30;;
71696;SDS011;68167;59.120;37.898;2023-08-20T07:39:35;2.33;;;1.70;;
71696;SDS011;68167;59.120;37.898;2023-08-20T07:42:02;2.87;;;1.30;;
71696;SDS011;68167;59.120;37.898;2023-08-20T07:44:28;2.73;;;1.30;;
71696;SDS011;68167;59.120;37.898;2023-08-20T07:46:55;1.40;;;1.30;;
71696;SDS011;68167;59.120;37.898;2023-08-20T07:49:21;2.80;;;1.33;;
71696;SDS011;68167;59.120;37.898;2023-08-20T07:51:47;3.83;;;1.00;;
71696;SDS011;68167;59.120;37.898;2023-08-20T07:54:15;3.47;;;1.30;;
71696;SDS011;68167;59.120;37.898;2023-08-20T07:56:41;1.20;;;1.10;;
71696;SDS011;68167;59.120;37.898;2023-08-20T07:59:07;1.33;;;1.10;;
71696;SDS011;68167;59.120;37.898;2023-08-20T08:01:33;2.07;;;1.10;;
71696;SDS011;68167;59.120;37.898;2023-08-20T08:04:00;2.53;;;1.27;;
71696;SDS011;68167;59.120;37.898;2023-08-20T08:06:26;1.73;;;1.30;;
71696;SDS011;68167;59.120;37.898;2023-08-20T08:08:53;1.90;;;1.20;;
71696;SDS011;68167;59.120;37.898;2023-08-20T08:11:19;1.90;;;1.10;;
71696;SDS011;68167;59.120;37.898;2023-08-20T08:13:45;3.97;;;1.37;;
71696;SDS011;68167;59.120;37.898;2023-08-20T08:16:12;2.57;;;1.27;;
71696;SDS011;68167;59.120;37.898;2023-08-20T08:18:38;3.67;;;1.10;;
71696;SDS011;68167;59.120;37.898;2023-08-20T08:21:04;2.97;;;1.40;;
71696;SDS011;68167;59.120;37.898;2023-08-20T08:23:31;2.90;;;1.30;;
71696;SDS011;68167;59.120;37.898;2023-08-20T08:25:57;2.20;;;1.20;;
71696;SDS011;68167;59.120;37.898;2023-08-20T08:28:23;4.80;;;1.40;;
71696;SDS011;68167;59.120;37.898;2023-08-20T08:30:50;2.80;;;1.40;;
71696;SDS011;68167;59.120;37.898;2023-08-20T08:33:16;1.97;;;1.00;;
71696;SDS011;68167;59.120;37.898;2023-08-20T08:35:42;2.77;;;1.20;;
71696;SDS011;68167;59.120;37.898;2023-08-20T08:38:09;5.30;;;1.63;;
71696;SDS011;68167;59.120;37.898;2023-08-20T08:40:35;5.67;;;1.40;;
71696;SDS011;68167;59.120;37.898;2023-08-20T08:43:01;3.17;;;1.37;;
71696;SDS011;68167;59.120;37.898;2023-08-20T08:45:28;4.10;;;2.10;;
71696;SDS011;68167;59.120;37.898;2023-08-20T08:47:55;1.60;;;1.00;;
71696;SDS011;68167;59.120;37.898;2023-08-20T08:50:22;5.07;;;1.40;;
71696;SDS011;68167;59.120;37.898;2023-08-20T08:52:49;3.10;;;1.13;;
71696;SDS011;68167;59.120;37.898;2023-08-20T08:55:18;2.37;;;1.50;;
71696;SDS011;68167;59.120;37.898;2023-08-20T08:57:45;5.07;;;1.40;;
71696;SDS011;68167;59.120;37.898;2023-08-20T09:00:11;2.90;;;1.30;;
71696;SDS011;68167;59.120;37.898;2023-08-20T09:02:38;2.43;;;1.30;;
71696;SDS011;68167;59.120;37.898;2023-08-20T09:05:05;2.43;;;1.10;;
71696;SDS011;68167;59.120;37.898;2023-08-20T09:07:32;1.77;;;1.27;;
71696;SDS011;68167;59.120;37.898;2023-08-20T09:09:58;1.43;;;1.10;;
71696;SDS011;68167;59.120;37.898;2023-08-20T09:12:30;6.10;;;1.20;;
71696;SDS011;68167;59.120;37.898;2023-08-20T09:15:00;1.90;;;1.60;;
71696;SDS011;68167;59.120;37.898;2023-08-20T09:17:26;4.50;;;1.50;;
71696;SDS011;68167;59.120;37.898;2023-08-20T09:19:55;3.37;;;1.57;;
71696;SDS011;68167;59.120;37.898;2023-08-20T09:22:26;4.97;;;1.60;;
71696;SDS011;68167;59.120;37.898;2023-08-20T09:24:53;4.43;;;1.40;;
71696;SDS011;68167;59.120;37.898;2023-08-20T09:27:21;3.33;;;1.40;;
71696;SDS011;68167;59.120;37.898;2023-08-20T09:29:49;2.87;;;1.30;;
71696;SDS011;68167;59.120;37.898;2023-08-20T09:32:20;3.20;;;1.50;;
71696;SDS011;68167;59.120;37.898;2023-08-20T09:34:48;3.73;;;1.40;;
71696;SDS011;68167;59.120;37.898;2023-08-20T09:37:16;3.60;;;1.60;;
71696;SDS011;68167;59.120;37.898;2023-08-20T09:39:45;3.50;;;2.00;;
71696;SDS011;68167;59.120;37.898;2023-08-20T09:42:12;2.87;;;1.97;;
71696;SDS011;68167;59.120;37.898;2023-08-20T09:44:39;4.07;;;1.57;;
71696;SDS011;68167;59.120;37.898;2023-08-20T09:47:11;5.93;;;1.50;;
71696;SDS011;68167;59.120;37.898;2023-08-20T09:49:41;4.40;;;1.40;;
71696;SDS011;68167;59.120;37.898;2023-08-20T09:52:09;2.50;;;1.30;;
71696;SDS011;68167;59.120;37.898;2023-08-20T09:54:45;1.80;;;1.20;;
71696;SDS011;68167;59.120;37.898;2023-08-20T10:00:05;3.23;;;1.60;;
71696;SDS011;68167;59.120;37.898;2023-08-20T10:02:41;4.77;;;1.70;;
71696;SDS011;68167;59.120;37.898;2023-08-20T10:05:09;3.47;;;1.43;;
71696;SDS011;68167;59.120;37.898;2023-08-20T10:07:37;3.03;;;1.70;;
71696;SDS011;68167;59.120;37.898;2023-08-20T10:10:05;2.70;;;1.50;;
71696;SDS011;68167;59.120;37.898;2023-08-20T10:12:33;3.83;;;1.40;;
71696;SDS011;68167;59.120;37.898;2023-08-20T10:15:01;3.90;;;1.70;;
71696;SDS011;68167;59.120;37.898;2023-08-20T10:17:32;5.90;;;2.87;;
71696;SDS011;68167;59.120;37.898;2023-08-20T10:20:01;3.17;;;1.53;;
71696;SDS011;68167;59.120;37.898;2023-08-20T10:22:44;2.93;;;1.43;;
71696;SDS011;68167;59.120;37.898;2023-08-20T10:25:12;3.50;;;1.57;;
71696;SDS011;68167;59.120;37.898;2023-08-20T10:27:48;2.80;;;1.70;;
71696;SDS011;68167;59.120;37.898;2023-08-20T10:30:18;3.43;;;1.40;;
71696;SDS011;68167;59.120;37.898;2023-08-20T10:32:48;2.33;;;1.60;;
71696;SDS011;68167;59.120;37.898;2023-08-20T10:35:23;2.37;;;1.50;;
71696;SDS011;68167;59.120;37.898;2023-08-20T10:38:03;5.13;;;1.60;;
71696;SDS011;68167;59.120;37.898;2023-08-20T10:43:29;3.73;;;2.33;;
71696;SDS011;68167;59.120;37.898;2023-08-20T10:46:05;5.20;;;1.60;;
71696;SDS011;68167;59.120;37.898;2023-08-20T10:48:33;2.67;;;1.40;;
71696;SDS011;68167;59.120;37.898;2023-08-20T10:51:06;4.07;;;1.30;;
71696;SDS011;68167;59.120;37.898;2023-08-20T10:53:33;3.47;;;1.40;;
71696;SDS011;68167;59.120;37.898;2023-08-20T10:56:21;3.87;;;1.30;;
71696;SDS011;68167;59.120;37.898;2023-08-20T10:58:47;4.17;;;1.60;;
71696;SDS011;68167;59.120;37.898;2023-08-20T11:03:44;4.63;;;1.63;;
71696;SDS011;68167;59.120;37.898;2023-08-20T11:06:11;4.53;;;1.93;;
71696;SDS011;68167;59.120;37.898;2023-08-20T11:08:38;4.63;;;1.80;;
71696;SDS011;68167;59.120;37.898;2023-08-20T11:11:08;2.07;;;1.07;;
71696;SDS011;68167;59.120;37.898;2023-08-20T11:13:35;2.20;;;1.43;;
71696;SDS011;68167;59.120;37.898;2023-08-20T11:16:02;3.07;;;1.70;;
71696;SDS011;68167;59.120;37.898;2023-08-20T11:18:30;2.93;;;1.77;;
71696;SDS011;68167;59.120;37.898;2023-08-20T11:21:00;5.13;;;1.70;;
71696;SDS011;68167;59.120;37.898;2023-08-20T11:23:27;4.37;;;1.70;;
71696;SDS011;68167;59.120;37.898;2023-08-20T11:25:55;1.80;;;1.30;;
71696;SDS011;68167;59.120;37.898;2023-08-20T11:28:22;4.03;;;1.50;;
71696;SDS011;68167;59.120;37.898;2023-08-20T11:30:48;4.33;;;1.37;;
71696;SDS011;68167;59.120;37.898;2023-08-20T11:33:16;2.93;;;1.43;;
71696;SDS011;68167;59.120;37.898;2023-08-20T11:35:42;4.40;;;1.40;;
71696;SDS011;68167;59.120;37.898;2023-08-20T11:38:09;3.17;;;1.30;;
71696;SDS011;68167;59.120;37.898;2023-08-20T11:40:36;2.90;;;1.40;;
71696;SDS011;68167;59.120;37.898;2023-08-20T11:43:03;1.60;;;1.40;;
71696;SDS011;68167;59.120;37.898;2023-08-20T11:45:30;2.37;;;1.47;;
71696;SDS011;68167;59.120;37.898;2023-08-20T11:48:00;1.70;;;1.30;;
71696;SDS011;68167;59.120;37.898;2023-08-20T11:50:27;2.17;;;1.57;;
71696;SDS011;68167;59.120;37.898;2023-08-20T11:52:53;1.70;;;1.50;;
71696;SDS011;68167;59.120;37.898;2023-08-20T11:55:23;5.43;;;1.53;;
71696;SDS011;68167;59.120;37.898;2023-08-20T11:57:51;2.00;;;1.70;;
71696;SDS011;68167;59.120;37.898;2023-08-20T12:00:24;4.10;;;1.33;;
71696;SDS011;68167;59.120;37.898;2023-08-20T12:02:57;1.87;;;1.43;;
71696;SDS011;68167;59.120;37.898;2023-08-20T12:05:27;3.67;;;1.50;;
71696;SDS011;68167;59.120;37.898;2023-08-20T12:10:24;2.60;;;1.50;;
71696;SDS011;68167;59.120;37.898;2023-08-20T12:12:51;2.97;;;1.50;;
71696;SDS011;68167;59.120;37.898;2023-08-20T12:15:18;2.47;;;1.50;;
71696;SDS011;68167;59.120;37.898;2023-08-20T12:17:55;1.90;;;1.50;;
71696;SDS011;68167;59.120;37.898;2023-08-20T12:20:32;2.63;;;1.40;;
71696;SDS011;68167;59.120;37.898;2023-08-20T12:23:01;4.07;;;2.17;;
71696;SDS011;68167;59.120;37.898;2023-08-20T12:25:31;3.67;;;1.50;;
71696;SDS011;68167;59.120;37.898;2023-08-20T12:28:00;4.23;;;2.57;;
71696;SDS011;68167;59.120;37.898;2023-08-20T12:30:31;2.73;;;1.40;;
71696;SDS011;68167;59.120;37.898;2023-08-20T12:32:57;3.97;;;1.60;;
71696;SDS011;68167;59.120;37.898;2023-08-20T12:35:24;6.73;;;2.40;;
71696;SDS011;68167;59.120;37.898;2023-08-20T12:37:50;2.93;;;1.60;;
71696;SDS011;68167;59.120;37.898;2023-08-20T12:40:17;5.33;;;2.20;;
71696;SDS011;68167;59.120;37.898;2023-08-20T12:42:43;5.27;;;2.30;;
71696;SDS011;68167;59.120;37.898;2023-08-20T12:45:10;3.33;;;1.80;;
71696;SDS011;68167;59.120;37.898;2023-08-20T12:47:38;3.00;;;1.60;;
71696;SDS011;68167;59.120;37.898;2023-08-20T12:50:05;3.73;;;1.37;;
71696;SDS011;68167;59.120;37.898;2023-08-20T12:52:32;3.30;;;1.53;;
71696;SDS011;68167;59.120;37.898;2023-08-20T12:54:59;3.37;;;2.00;;
71696;SDS011;68167;59.120;37.898;2023-08-20T12:57:25;1.90;;;1.23;;
71696;SDS011;68167;59.120;37.898;2023-08-20T12:59:51;2.93;;;1.83;;
71696;SDS011;68167;59.120;37.898;2023-08-20T13:02:18;3.53;;;1.30;;
71696;SDS011;68167;59.120;37.898;2023-08-20T13:04:46;2.20;;;1.43;;
71696;SDS011;68167;59.120;37.898;2023-08-20T13:07:13;3.40;;;1.80;;
71696;SDS011;68167;59.120;37.898;2023-08-20T13:09:39;5.33;;;1.73;;
71696;SDS011;68167;59.120;37.898;2023-08-20T13:12:06;4.90;;;1.40;;
71696;SDS011;68167;59.120;37.898;2023-08-20T13:14:38;2.93;;;1.30;;
71696;SDS011;68167;59.120;37.898;2023-08-20T13:17:06;2.00;;;1.60;;
71696;SDS011;68167;59.120;37.898;2023-08-20T13:19:33;2.77;;;1.40;;
71696;SDS011;68167;59.120;37.898;2023-08-20T13:22:00;4.23;;;1.80;;
71696;SDS011;68167;59.120;37.898;2023-08-20T13:24:26;3.73;;;2.03;;
71696;SDS011;68167;59.120;37.898;2023-08-20T13:26:53;4.33;;;2.00;;
71696;SDS011;68167;59.120;37.898;2023-08-20T13:29:19;5.20;;;1.60;;
71696;SDS011;68167;59.120;37.898;2023-08-20T13:31:45;3.87;;;2.20;;
71696;SDS011;68167;59.120;37.898;2023-08-20T13:34:12;2.80;;;1.33;;
71696;SDS011;68167;59.120;37.898;2023-08-20T13:36:38;3.27;;;1.30;;
71696;SDS011;68167;59.120;37.898;2023-08-20T13:39:04;2.73;;;1.73;;
71696;SDS011;68167;59.120;37.898;2023-08-20T13:41:31;2.37;;;1.37;;
71696;SDS011;68167;59.120;37.898;2023-08-20T13:43:57;4.47;;;1.60;;
71696;SDS011;68167;59.120;37.898;2023-08-20T13:46:23;3.53;;;1.83;;
71696;SDS011;68167;59.120;37.898;2023-08-20T13:48:49;4.50;;;2.10;;
71696;SDS011;68167;59.120;37.898;2023-08-20T13:51:16;3.95;;;1.60;;
71696;SDS011;68167;59.120;37.898;2023-08-20T13:53:42;2.08;;;1.77;;
71696;SDS011;68167;59.120;37.898;2023-08-20T13:56:08;4.43;;;1.60;;
71696;SDS011;68167;59.120;37.898;2023-08-20T13:58:35;1.50;;;1.30;;
71696;SDS011;68167;59.120;37.898;2023-08-20T14:01:01;3.47;;;1.45;;
71696;SDS011;68167;59.120;37.898;2023-08-20T14:03:28;4.97;;;3.13;;
71696;SDS011;68167;59.120;37.898;2023-08-20T14:05:54;3.40;;;1.73;;
71696;SDS011;68167;59.120;37.898;2023-08-20T14:08:20;3.70;;;1.53;;
71696;SDS011;68167;59.120;37.898;2023-08-20T14:10:47;4.60;;;1.67;;
71696;SDS011;68167;59.120;37.898;2023-08-20T14:13:13;3.17;;;1.50;;
71696;SDS011;68167;59.120;37.898;2023-08-20T14:15:39;4.50;;;1.80;;
71696;SDS011;68167;59.120;37.898;2023-08-20T14:18:06;2.00;;;1.60;;
71696;SDS011;68167;59.120;37.898;2023-08-20T14:20:32;4.50;;;1.67;;
71696;SDS011;68167;59.120;37.898;2023-08-20T14:22:59;3.40;;;1.40;;
71696;SDS011;68167;59.120;37.898;2023-08-20T14:25:25;2.50;;;1.80;;
71696;SDS011;68167;59.120;37.898;2023-08-20T14:27:51;3.53;;;2.23;;
71696;SDS011;68167;59.120;37.898;2023-08-20T14:30:18;3.50;;;1.40;;
71696;SDS011;68167;59.120;37.898;2023-08-20T14:32:44;2.63;;;1.50;;
71696;SDS011;68167;59.120;37.898;2023-08-20T14:35:11;3.07;;;1.70;;
71696;SDS011;68167;59.120;37.898;2023-08-20T14:37:37;3.30;;;1.80;;
71696;SDS011;68167;59.120;37.898;2023-08-20T14:40:04;5.13;;;2.13;;
71696;SDS011;68167;59.120;37.898;2023-08-20T14:42:32;3.57;;;1.60;;
71696;SDS011;68167;59.120;37.898;2023-08-20T14:44:59;4.33;;;1.73;;
71696;SDS011;68167;59.120;37.898;2023-08-20T14:47:26;2.77;;;1.77;;
71696;SDS011;68167;59.120;37.898;2023-08-20T14:49:52;3.10;;;2.20;;
71696;SDS011;68167;59.120;37.898;2023-08-20T14:52:18;2.20;;;1.80;;
71696;SDS011;68167;59.120;37.898;2023-08-20T14:54:45;4.47;;;2.03;;
71696;SDS011;68167;59.120;37.898;2023-08-20T14:57:11;3.37;;;2.27;;